Flight Track Log - Related Links

Times and Time Zones

All times are in EDT time to prevent confusion due to time zone crossing. See the CSN6115 flight status page for this flight to view local times or setup timezone preferences in your user account.

Time Position Orientation Groundspeed Altitude Reporting Facility
EDT Latitude Longitude Course Direction KTS MPH feet Rate Location/Type
Fri 09:59:00 AM 41.6152 123.3550 256° West  Level Estimated
Fri 10:00:00 AM 41.5904 123.2267 256° West  Level Estimated
Fri 10:01:00 AM 41.5654 123.0985 255° West  Level Estimated
Fri 10:02:00 AM 41.5404 122.9704 255° West  Level Estimated
Fri 10:03:00 AM 41.5151 122.8424 255° West  Level Estimated
Fri 10:04:00 AM 41.4897 122.7145 255° West  Level Estimated
Fri 10:05:00 AM 41.4642 122.5866 255° West  Level Estimated
Fri 10:06:00 AM 41.4386 122.4589 255° West  Level Estimated
Fri 10:07:00 AM 41.4128 122.3313 255° West  Level Estimated
Fri 10:08:00 AM 41.3869 122.2038 255° West  Level Estimated
Fri 10:09:00 AM 41.3608 122.0764 255° West  Level Estimated
Fri 10:10:00 AM 41.3346 121.9491 255° West  Level Estimated
Fri 10:11:00 AM 41.3082 121.8219 255° West  Level Estimated
Fri 10:12:00 AM 41.2817 121.6948 255° West  Level Estimated
Fri 10:13:00 AM 41.2551 121.5678 254° West  Level Estimated
Fri 10:14:00 AM 41.2283 121.4409 254° West  Level Estimated
Fri 10:15:00 AM 41.2014 121.3141 254° West  Level Estimated
Fri 10:16:00 AM 41.1743 121.1874 254° West  Level Estimated
Fri 10:17:00 AM 41.1471 121.0609 254° West  Level Estimated
Fri 10:18:00 AM 41.1198 120.9344 254° West  Level Estimated
Fri 10:19:00 AM 41.0924 120.8080 254° West  Level Estimated
Fri 10:20:00 AM 41.0647 120.6818 254° West  Level Estimated
Fri 10:21:00 AM 41.0370 120.5556 254° West  Level Estimated
Fri 10:22:00 AM 41.0091 120.4296 254° West  Level Estimated
Fri 10:23:00 AM 40.9811 120.3036 254° West  Level Estimated
Fri 10:24:00 AM 40.9529 120.1778 254° West  Level Estimated
Fri 10:25:00 AM 40.9246 120.0520 253° West  Level Estimated
Fri 10:26:00 AM 40.8962 119.9264 253° West  Level Estimated
Fri 10:27:00 AM 40.8676 119.8009 253° West  Level Estimated
Fri 10:28:00 AM 40.8390 119.6755 253° West  Level Estimated
Fri 10:29:00 AM 40.8101 119.5502 253° West  Level Estimated
Fri 10:30:00 AM 40.7811 119.4250 253° West  Level Estimated
Fri 10:31:00 AM 40.7520 119.2999 253° West  Level Estimated
Fri 10:32:00 AM 40.7228 119.1750 253° West  Level Estimated
Fri 10:33:00 AM 40.6934 119.0501 253° West  Level Estimated
Fri 10:34:00 AM 40.6639 118.9254 253° West  Level Estimated
Fri 10:35:00 AM 40.6343 118.8007 253° West  Level Estimated
Fri 10:36:00 AM 40.6045 118.6762 253° West  Level Estimated
Fri 10:37:00 AM 40.5746 118.5518 252° West  Level Estimated
Fri 10:38:00 AM 40.5445 118.4275 252° West  Level Estimated
Fri 10:39:00 AM 40.5143 118.3033 252° West  Level Estimated
Fri 10:40:00 AM 40.4840 118.1792 252° West  Level Estimated
Fri 10:41:00 AM 40.4536 118.0553 252° West  Level Estimated
Fri 10:42:00 AM 40.4230 117.9314 252° West  Level Estimated
Fri 10:43:00 AM 40.3923 117.8077 252° West  Level Estimated
Fri 10:43:46 AM 40.1700 116.7410 252° West 225 259 9,000  Level FlightAware ADS-B
Fri 10:44:00 AM 40.3615 117.6840 252° West  Level Estimated
Fri 10:44:40 AM 40.1200 116.7390 182° South 206 237 9,000  Level FlightAware ADS-B
Fri 10:45:23 AM 40.0810 116.7360 183° South 204 235 8,800 -1,200 Descending FlightAware ADS-B
Fri 10:46:10 AM 40.0340 116.7360 180° South 200 230 7,200 -1,680 Descending FlightAware ADS-B
Fri 10:46:38 AM 40.0100 116.7380 176° South 196 226 6,700 -1,071 Descending FlightAware ADS-B
Fri 10:47:06 AM 39.9900 116.7390 178° South 195 224 6,200 -536 Descending FlightAware ADS-B
Fri 10:47:34 AM 39.9690 116.7420 174° South 195 224 6,200  Level FlightAware ADS-B
Fri 10:50:00 AM 40.0801 116.5846 313° West  Level Estimated
Fri 10:51:00 AM 40.0801 116.5846 288° West  Level Estimated
Fri 10:52:00 AM 40.0801 116.5846 288° West  Level Estimated
Fri 10:53:00 AM 40.0801 116.5846 288° West  Level Estimated
Fri 10:54:00 AM 40.0801 116.5846 288° West  Level Estimated
Fri 10:55:00 AM 40.0801 116.5846 288° West  Level Estimated
Fri 10:56:00 AM 40.0801 116.5846 288° West  Level Estimated
Fri 10:57:00 AM 40.0801 116.5846 288° West  Level Estimated
Fri 10:58:00 AM 40.0801 116.5846 288° West  Level Estimated
Fri 10:59:00 AM 40.0801 116.5846 288° West  Level Estimated
Fri 11:00:00 AM 40.0801 116.5846 288° West  Level Estimated
Fri 11:01:00 AM 40.0801 116.5846 288° West  Level Estimated
Fri 11:02:00 AM 40.0801 116.5846 288° West  Level Estimated
Fri 11:03:00 AM 40.0801 116.5846 288° West  Level Estimated
Fri 11:04:00 AM 40.0801 116.5846 288° West  Level Estimated
Fri 11:05:00 AM 40.0801 116.5846 288° West  Level Estimated
Fri 11:06:00 AM 40.0801 116.5846 288° West  Level Estimated
Fri 11:07:00 AM 40.0801 116.5846 288° West  Level Estimated

Login

Don't have an account? Register now (free) for customized features, flight alerts, and more!